Time;durP1;ratioP1;P1;durP2;ratioP2;P2;SDS_P1;SDS_P2;PMS_P1;PMS_P2;Temp;Humidity;BMP_temperature;BMP_pressure;BME280_temperature;BME280_humidity;BME280_pressure;Samples;Min_cycle;Max_cycle;Signal;HPM_P1;HPM_P2
2022/06/23 00:02:21;;;;;;;;;;;;;;;-144.99;95.16;52268.72;5106769;28;19931;-77
2022/06/23 00:04:49;;;;;;;;;;;;;;;-144.99;95.06;52264.66;5109274;28;20326;-78
2022/06/23 00:07:18;;;;;;;;;;;;;;;-144.99;95.25;52252.44;5108202;28;20338;-78
2022/06/23 00:09:49;;;;;;;;;;;;;;;-144.99;95.39;52272.81;5099945;28;20328;-77
2022/06/23 00:12:22;;;;;;;;;;;;;;;-144.99;95.60;52252.44;5110699;28;19919;-76
2022/06/23 00:14:50;;;;;;;;;;;;;;;-144.99;96.08;52270.78;5112859;28;19951;-77
2022/06/23 00:17:18;;;;;;;;;;;;;;;-144.99;96.09;52297.25;5109643;28;20140;-77
2022/06/23 00:19:45;;;;;;;;;;;;;;;-144.99;96.42;52299.31;5109487;28;19920;-76
2022/06/23 00:22:13;;;;;;;;;;;;;;;-144.99;96.40;52276.88;5120960;28;19907;-74
2022/06/23 00:24:40;;;;;;;;;;;;;;;-144.99;96.80;52268.72;5124797;28;19927;-76
2022/06/23 00:27:14;;;;;;;;;;;;;;;-144.99;97.21;52297.25;5110856;28;20331;-77
2022/06/23 00:29:40;;;;;;;;;;;;;;;-144.99;97.63;52256.50;5106041;28;19956;-77
2022/06/23 00:32:10;;;;;;;;;;;;;;;-144.99;97.41;52272.81;5109431;28;19988;-77
2022/06/23 00:34:37;;;;;;;;;;;;;;;-144.99;98.11;52289.13;5107852;28;19923;-78
2022/06/23 00:37:07;;;;;;;;;;;;;;;-144.99;98.05;52276.88;5102037;28;19973;-77
2022/06/23 00:39:35;;;;;;;;;;;;;;;-144.99;98.44;52260.56;5111826;27;20435;-77
2022/06/23 00:42:03;;;;;;;;;;;;;;;-144.99;98.70;52260.56;5096529;27;19924;-74
2022/06/23 00:44:34;;;;;;;;;;;;;;;-144.99;99.05;52280.97;5103578;28;20024;-77
2022/06/23 00:47:03;;;;;;;;;;;;;;;-144.99;99.18;52260.56;5112820;28;19923;-77
2022/06/23 00:49:34;;;;;;;;;;;;;;;-144.99;99.33;52254.47;5106812;28;19959;-78
2022/06/23 00:52:10;;;;;;;;;;;;;;;-144.99;100.00;52278.91;5113079;28;19920;-77
2022/06/23 00:54:42;;;;;;;;;;;;;;;-144.99;99.79;52295.22;5110431;28;20008;-78
2022/06/23 00:57:14;;;;;;;;;;;;;;;-144.99;99.93;52260.56;5110895;28;19921;-78
2022/06/23 00:59:44;;;;;;;;;;;;;;;-144.99;100.00;52276.88;5116080;28;20339;-79
2022/06/23 01:02:13;;;;;;;;;;;;;;;-144.99;100.00;52252.44;5109476;28;19920;-78
2022/06/23 01:04:43;;;;;;;;;;;;;;;-144.99;99.96;52297.25;5113429;28;19923;-78
2022/06/23 01:07:18;;;;;;;;;;;;;;;-144.99;99.82;52301.34;5113245;28;19923;-78
2022/06/23 01:09:47;;;;;;;;;;;;;;;-144.99;100.00;52272.81;5111156;28;20004;-78
2022/06/23 01:12:19;;;;;;;;;;;;;;;-144.99;100.00;52297.25;5110423;28;20319;-78
2022/06/23 01:14:49;;;;;;;;;;;;;;;-144.99;100.00;52268.72;5104735;28;19928;-78
2022/06/23 01:17:18;;;;;;;;;;;;;;;-144.99;100.00;52287.06;5107481;28;19946;-78
2022/06/23 01:19:52;;;;;;;;;;;;;;;-144.99;100.00;52295.22;5108481;28;19977;-79
2022/06/23 01:22:24;;;;;;;;;;;;;;;-144.99;100.00;52276.88;5111329;28;20107;-75
2022/06/23 01:24:55;;;;;;;;;;;;;;;-144.99;100.00;52272.81;5104785;28;19927;-76
2022/06/23 01:27:27;;;;;;;;;;;;;;;-144.99;100.00;52305.41;5101524;28;19927;-76
2022/06/23 01:29:58;;;;;;;;;;;;;;;-144.99;100.00;52309.50;5103092;28;19924;-76
2022/06/23 01:32:26;;;;;;;;;;;;;;;-144.99;100.00;52297.25;5100242;28;20439;-75
2022/06/23 01:34:55;;;;;;;;;;;;;;;-144.99;100.00;52325.81;5110256;28;20178;-76
2022/06/23 01:37:25;;;;;;;;;;;;;;;-144.99;100.00;52252.44;5101443;28;20216;-78
2022/06/23 01:39:56;;;;;;;;;;;;;;;-144.99;100.00;52252.44;5100331;28;20020;-76
2022/06/23 01:42:25;;;;;;;;;;;;;;;-144.99;100.00;52307.47;5109513;28;19919;-76
2022/06/23 01:44:58;;;;;;;;;;;;;;;-144.99;100.00;52289.13;5108552;28;19951;-77
2022/06/23 01:47:30;;;;;;;;;;;;;;;-144.99;100.00;52264.66;5111512;28;19923;-77
2022/06/23 01:50:00;;;;;;;;;;;;;;;-144.99;100.00;52256.50;5107503;28;19927;-77
2022/06/23 01:52:26;;;;;;;;;;;;;;;-144.99;100.00;52297.25;5111137;28;19920;-78
2022/06/23 01:54:57;;;;;;;;;;;;;;;-144.99;100.00;52283.00;5112695;28;19969;-79
2022/06/23 01:57:28;;;;;;;;;;;;;;;-144.99;100.00;52264.66;5107297;28;19972;-79
2022/06/23 01:59:58;;;;;;;;;;;;;;;-144.99;100.00;52278.91;5110467;28;20105;-79
2022/06/23 02:02:41;;;;;;;;;;;;;;;-144.99;100.00;52256.50;5112449;28;19920;-77
2022/06/23 02:05:12;;;;;;;;;;;;;;;-144.99;100.00;52291.16;5108304;28;19985;-79
2022/06/23 02:07:43;;;;;;;;;;;;;;;-144.99;100.00;52309.50;5112242;28;19969;-79
2022/06/23 02:10:18;;;;;;;;;;;;;;;-144.99;100.00;52313.56;5112845;28;19923;-79
2022/06/23 02:12:48;;;;;;;;;;;;;;;-144.99;100.00;52280.97;5108293;28;19920;-79
2022/06/23 02:15:16;;;;;;;;;;;;;;;-144.99;100.00;52289.13;5109923;28;19919;-79
2022/06/23 02:17:49;;;;;;;;;;;;;;;-144.99;100.00;52291.16;5102085;28;19924;-79
2022/06/23 02:20:28;;;;;;;;;;;;;;;-144.99;100.00;52321.72;5108912;28;19920;-78
2022/06/23 02:23:06;;;;;;;;;;;;;;;-144.99;100.00;52250.38;5110968;28;19920;-78
2022/06/23 02:25:34;;;;;;;;;;;;;;;-144.99;100.00;52230.00;5107622;28;19920;-79
2022/06/23 02:28:13;;;;;;;;;;;;;;;-144.99;100.00;52268.72;5109976;28;19919;-78
2022/06/23 02:30:41;;;;;;;;;;;;;;;-144.99;100.00;52268.72;5115283;28;19928;-79
2022/06/23 02:33:18;;;;;;;;;;;;;;;-144.99;100.00;52276.88;5113193;28;19943;-77
2022/06/23 02:35:47;;;;;;;;;;;;;;;-144.99;100.00;52272.81;5101570;28;19941;-76
2022/06/23 02:38:19;;;;;;;;;;;;;;;-144.99;100.00;52232.03;5103042;28;20047;-78
2022/06/23 02:40:46;;;;;;;;;;;;;;;-144.99;100.00;52268.72;5105380;28;19928;-76
2022/06/23 02:43:16;;;;;;;;;;;;;;;-144.99;100.00;52252.44;5111410;28;19951;-77
2022/06/23 02:45:58;;;;;;;;;;;;;;;-144.99;100.00;52303.38;5109436;28;19919;-77
2022/06/23 02:48:31;;;;;;;;;;;;;;;-144.99;100.00;52270.78;5110294;28;19974;-77
2022/06/23 02:51:04;;;;;;;;;;;;;;;-144.99;100.00;52301.34;5111250;28;19928;-77
2022/06/23 02:53:43;;;;;;;;;;;;;;;-144.99;100.00;52248.34;5098970;28;20379;-76
2022/06/23 02:56:24;;;;;;;;;;;;;;;-144.99;100.00;52252.44;5098042;28;19928;-76
2022/06/23 02:58:56;;;;;;;;;;;;;;;-144.99;100.00;52299.31;5109405;28;20336;-76
2022/06/23 03:01:26;;;;;;;;;;;;;;;-144.99;100.00;52303.38;5111846;28;20279;-76
2022/06/23 03:04:00;;;;;;;;;;;;;;;-144.99;100.00;52268.72;5113910;28;19927;-78
2022/06/23 03:06:31;;;;;;;;;;;;;;;-144.99;100.00;52283.00;5101842;28;19973;-78
2022/06/23 03:09:00;;;;;;;;;;;;;;;-144.99;100.00;52240.19;5110540;28;20344;-78
2022/06/23 03:14:17;;;;;;;;;;;;;;;-144.99;100.00;52278.91;5106045;28;19926;-78
2022/06/23 03:16:47;;;;;;;;;;;;;;;-144.99;100.00;52309.50;5131644;28;19912;-77
2022/06/23 03:19:17;;;;;;;;;;;;;;;-144.99;100.00;52268.72;5119858;28;19920;-76
2022/06/23 03:21:45;;;;;;;;;;;;;;;-144.99;100.00;52293.19;5106243;28;19920;-76
2022/06/23 03:24:15;;;;;;;;;;;;;;;-144.99;100.00;52244.28;5108115;28;19923;-76
2022/06/23 03:26:44;;;;;;;;;;;;;;;-144.99;100.00;52268.72;5099102;28;19970;-77
2022/06/23 03:29:16;;;;;;;;;;;;;;;-144.99;100.00;52227.97;5108702;28;19950;-76
2022/06/23 03:31:44;;;;;;;;;;;;;;;-144.99;100.00;52264.66;5109308;28;20382;-77
2022/06/23 03:34:18;;;;;;;;;;;;;;;-144.99;100.00;52258.53;5109526;28;19930;-75
2022/06/23 03:36:48;;;;;;;;;;;;;;;-144.99;100.00;52293.19;5103796;28;20308;-76
2022/06/23 03:42:06;;;;;;;;;;;;;;;-144.99;100.00;52258.53;5111381;28;19926;-75
2022/06/23 03:44:40;;;;;;;;;;;;;;;-144.99;100.00;52219.81;5108244;28;19919;-74
2022/06/23 03:47:13;;;;;;;;;;;;;;;-144.99;100.00;52276.88;5108089;28;20374;-77
2022/06/23 03:49:44;;;;;;;;;;;;;;;-144.99;100.00;52289.13;5105998;28;19920;-76
2022/06/23 03:52:19;;;;;;;;;;;;;;;-144.99;100.00;52272.81;5115240;28;19949;-74
2022/06/23 03:54:48;;;;;;;;;;;;;;;-144.99;100.00;52260.56;5110099;28;19920;-75
2022/06/23 03:57:17;;;;;;;;;;;;;;;-144.99;100.00;52232.03;5109084;28;19923;-75
2022/06/23 03:59:48;;;;;;;;;;;;;;;-144.99;100.00;52256.50;5111957;28;19973;-77
2022/06/23 04:02:17;;;;;;;;;;;;;;;-144.99;100.00;52240.19;5102988;28;19922;-78
2022/06/23 04:04:49;;;;;;;;;;;;;;;-144.99;100.00;52244.28;5108005;28;20216;-77
2022/06/23 04:07:36;;;;;;;;;;;;;;;-144.99;100.00;52260.56;5103717;28;19920;-78
2022/06/23 04:10:04;;;;;;;;;;;;;;;-144.99;100.00;52232.03;5112384;28;20590;-77
2022/06/23 04:12:32;;;;;;;;;;;;;;;-144.99;100.00;52223.88;5111342;28;20459;-78
2022/06/23 04:15:02;;;;;;;;;;;;;;;-144.99;100.00;52260.56;5115474;28;20301;-78
2022/06/23 04:17:35;;;;;;;;;;;;;;;-144.99;100.00;52272.81;5108834;28;19920;-78
2022/06/23 04:20:09;;;;;;;;;;;;;;;-144.99;100.00;52285.03;5110023;28;19930;-76
2022/06/23 04:22:39;;;;;;;;;;;;;;;-144.99;100.00;52234.09;5107247;28;19924;-77
2022/06/23 04:25:07;;;;;;;;;;;;;;;-144.99;100.00;52285.03;5112796;28;19919;-77
2022/06/23 04:27:38;;;;;;;;;;;;;;;-144.99;100.00;52260.56;5107789;28;19984;-77
2022/06/23 04:30:06;;;;;;;;;;;;;;;-144.99;100.00;52272.81;5111329;28;19927;-77
2022/06/23 04:32:34;;;;;;;;;;;;;;;-144.99;100.00;52223.88;5108808;28;19920;-77
2022/06/23 04:35:08;;;;;;;;;;;;;;;-144.99;100.00;52268.72;5112390;28;19985;-77
2022/06/23 04:37:39;;;;;;;;;;;;;;;-144.99;100.00;52236.13;5109449;28;19919;-75
2022/06/23 04:40:30;;;;;;;;;;;;;;;-144.99;100.00;52232.03;5109653;28;20431;-75
2022/06/23 04:42:59;;;;;;;;;;;;;;;-144.99;100.00;52232.03;5111351;28;19927;-77
2022/06/23 04:45:31;;;;;;;;;;;;;;;-144.99;100.00;52236.13;5102501;28;20003;-77
2022/06/23 04:47:59;;;;;;;;;;;;;;;-144.99;100.00;52207.59;5107306;28;19963;-77
2022/06/23 04:50:33;;;;;;;;;;;;;;;-144.99;100.00;52248.34;5105167;28;19951;-77
2022/06/23 04:53:01;;;;;;;;;;;;;;;-144.99;100.00;52285.03;5106424;28;20329;-77
2022/06/23 04:55:31;;;;;;;;;;;;;;;-144.99;100.00;52223.88;5107243;28;19973;-78
2022/06/23 04:58:00;;;;;;;;;;;;;;;-144.99;100.00;52215.75;5111748;28;19924;-77
2022/06/23 05:00:29;;;;;;;;;;;;;;;-144.99;100.00;52244.28;5089370;28;19927;-77
2022/06/23 05:02:57;;;;;;;;;;;;;;;-144.99;100.00;52215.75;5108600;28;19927;-78
2022/06/23 05:05:28;;;;;;;;;;;;;;;-144.99;100.00;52242.22;5101900;28;20330;-77
2022/06/23 05:07:56;;;;;;;;;;;;;;;-144.99;100.00;52221.84;5106839;28;19920;-75
2022/06/23 05:10:27;;;;;;;;;;;;;;;-144.99;100.00;52240.19;5108546;28;19919;-76
2022/06/23 05:12:55;;;;;;;;;;;;;;;-144.99;100.00;52246.31;5108337;28;19924;-76
2022/06/23 05:15:26;;;;;;;;;;;;;;;-144.99;100.00;52191.28;4400503;28;10000715;-76
2022/06/23 05:17:55;;;;;;;;;;;;;;;-144.99;100.00;52232.03;5102385;28;20312;-78
2022/06/23 05:20:24;;;;;;;;;;;;;;;-144.99;100.00;52244.28;5105203;28;20390;-76
2022/06/23 05:22:51;;;;;;;;;;;;;;;-144.99;100.00;52205.53;5102466;28;20410;-77
2022/06/23 05:25:33;;;;;;;;;;;;;;;-144.99;100.00;52227.97;5104993;28;20006;-76
2022/06/23 05:28:02;;;;;;;;;;;;;;;-144.99;100.00;52232.03;5102856;28;19923;-77
2022/06/23 05:30:31;;;;;;;;;;;;;;;-144.99;100.00;52236.13;5109099;28;20334;-78
2022/06/23 05:33:01;;;;;;;;;;;;;;;-144.99;100.00;52223.88;5104566;28;20405;-76
2022/06/23 05:35:29;;;;;;;;;;;;;;;-144.99;100.00;52219.81;5103429;28;19932;-75
2022/06/23 05:37:57;;;;;;;;;;;;;;;-144.99;100.00;52236.13;5101062;28;19977;-76
2022/06/23 05:40:27;;;;;;;;;;;;;;;-144.99;99.98;52236.13;5104096;28;20379;-76
2022/06/23 05:43:00;;;;;;;;;;;;;;;-144.99;99.99;52223.88;5106963;28;19920;-76
2022/06/23 05:45:27;;;;;;;;;;;;;;;-144.99;99.87;52230.00;5097252;28;19943;-76
2022/06/23 05:47:55;;;;;;;;;;;;;;;-144.99;99.41;52238.16;5101629;28;19931;-75
2022/06/23 05:50:26;;;;;;;;;;;;;;;-144.99;98.62;52244.28;5105742;28;19923;-73
2022/06/23 05:52:57;;;;;;;;;;;;;;;-144.99;97.64;52195.34;5097409;28;19924;-75
2022/06/23 05:55:27;;;;;;;;;;;;;;;-144.99;97.29;52207.59;5102602;28;19924;-75
2022/06/23 05:57:58;;;;;;;;;;;;;;;-144.99;96.11;52187.19;5102173;28;19966;-77
2022/06/23 06:00:28;;;;;;;;;;;;;;;-144.99;96.19;52191.28;5108568;28;20442;-74
2022/06/23 06:02:57;;;;;;;;;;;;;;;-144.99;95.49;52195.34;5113451;28;19930;-73
2022/06/23 06:05:27;;;;;;;;;;;;;;;-144.99;93.85;52174.97;5107420;28;19984;-75
2022/06/23 06:07:53;;;;;;;;;;;;;;;-144.99;92.22;52179.06;5121216;28;19928;-77
2022/06/23 06:10:21;;;;;;;;;;;;;;;-144.99;91.44;52234.09;5111985;28;19931;-76
2022/06/23 06:12:49;;;;;;;;;;;;;;;-144.99;90.93;52183.13;5097931;28;20335;-76
2022/06/23 06:15:19;;;;;;;;;;;;;;;-144.99;90.58;52199.44;5100432;28;19980;-76
2022/06/23 06:17:46;;;;;;;;;;;;;;;-144.99;88.21;52193.31;5105908;28;19931;-76
2022/06/23 06:20:14;;;;;;;;;;;;;;;-144.99;87.69;52170.91;5106412;28;19923;-75
2022/06/23 06:22:47;;;;;;;;;;;;;;;-144.99;86.82;52195.34;5102870;28;19924;-75
2022/06/23 06:25:18;;;;;;;;;;;;;;;-144.99;86.33;52154.59;5134596;22;19996;-73
2022/06/23 06:27:45;;;;;;;;;;;;;;;-144.99;85.24;52205.53;5080886;28;20062;-73
2022/06/23 06:30:15;;;;;;;;;;;;;;;-144.99;84.37;52179.06;5089114;28;19924;-73
2022/06/23 06:32:44;;;;;;;;;;;;;;;-144.99;82.77;52207.59;5089207;28;19974;-73
2022/06/23 06:35:17;;;;;;;;;;;;;;;-144.99;82.10;52195.34;5088984;28;19936;-73
2022/06/23 06:37:45;;;;;;;;;;;;;;;-144.99;81.07;52203.50;5088134;28;20341;-73
2022/06/23 06:40:12;;;;;;;;;;;;;;;-144.99;80.42;52191.28;5087893;28;19993;-74
2022/06/23 06:42:41;;;;;;;;;;;;;;;-144.99;78.32;52156.63;5088934;28;19977;-73
2022/06/23 06:45:10;;;;;;;;;;;;;;;-144.99;77.16;52183.13;5088918;28;19924;-73
2022/06/23 06:47:37;;;;;;;;;;;;;;;-144.99;76.98;52162.75;5088785;28;19920;-74
2022/06/23 06:50:12;;;;;;;;;;;;;;;-144.99;76.69;52174.97;5087682;28;19923;-74
2022/06/23 06:52:39;;;;;;;;;;;;;;;-144.99;75.67;52170.91;5088254;28;19920;-73
2022/06/23 06:55:08;;;;;;;;;;;;;;;-144.99;75.19;52121.97;5088748;28;20205;-73
2022/06/23 06:57:37;;;;;;;;;;;;;;;-144.99;74.19;52168.84;5085000;28;19928;-73
2022/06/23 07:00:07;;;;;;;;;;;;;;;-144.99;73.67;52195.34;5087095;28;19920;-73
2022/06/23 07:02:37;;;;;;;;;;;;;;;-144.99;73.57;52177.00;5077725;28;19927;-73
2022/06/23 07:05:07;;;;;;;;;;;;;;;-144.99;73.06;52166.81;5088422;28;19951;-73
2022/06/23 07:07:44;;;;;;;;;;;;;;;-144.99;71.86;52130.13;5087013;28;19939;-73
2022/06/23 07:10:15;;;;;;;;;;;;;;;-144.99;70.32;52150.53;5084819;28;20297;-74
2022/06/23 07:12:45;;;;;;;;;;;;;;;-144.99;69.22;52134.22;5087353;28;19939;-73
2022/06/23 07:15:15;;;;;;;;;;;;;;;-144.99;68.89;52170.91;5089709;28;20041;-73
2022/06/23 07:17:44;;;;;;;;;;;;;;;-144.99;68.42;52154.59;5082159;28;20015;-73
2022/06/23 07:20:13;;;;;;;;;;;;;;;-144.99;67.92;52146.44;5085063;28;19924;-73
2022/06/23 07:22:42;;;;;;;;;;;;;;;-144.99;67.02;52154.59;5081597;28;19993;-76
2022/06/23 07:25:12;;;;;;;;;;;;;;;-144.99;65.48;52121.97;5084237;28;19920;-76
2022/06/23 07:27:42;;;;;;;;;;;;;;;-144.99;65.51;52109.75;5084107;28;19932;-75
2022/06/23 07:30:12;;;;;;;;;;;;;;;-144.99;64.82;52138.28;5089727;28;19989;-76
2022/06/23 07:32:44;;;;;;;;;;;;;;;-144.99;65.19;52124.03;5086517;28;19924;-76
2022/06/23 07:35:20;;;;;;;;;;;;;;;-144.99;64.81;52136.25;5088158;28;19955;-76
2022/06/23 07:37:51;;;;;;;;;;;;;;;-144.99;64.88;52117.91;5081282;28;19928;-74
2022/06/23 07:40:20;;;;;;;;;;;;;;;-144.99;64.76;52158.66;5088521;28;20428;-75
2022/06/23 07:42:51;;;;;;;;;;;;;;;-144.99;63.96;52154.59;5085268;28;20008;-73
2022/06/23 07:45:19;;;;;;;;;;;;;;;-144.99;64.00;52179.06;5087807;28;19954;-74
2022/06/23 07:47:46;;;;;;;;;;;;;;;-144.99;63.85;52140.31;5086548;28;19927;-74
2022/06/23 07:50:13;;;;;;;;;;;;;;;-144.99;63.57;52134.22;5087507;28;19920;-74
2022/06/23 07:52:40;;;;;;;;;;;;;;;-144.99;61.67;52126.06;5087214;28;20174;-73
2022/06/23 07:55:11;;;;;;;;;;;;;;;-144.99;61.95;52146.44;5087065;28;19927;-73
2022/06/23 07:57:37;;;;;;;;;;;;;;;-144.99;62.12;52158.66;5087078;28;19935;-74
2022/06/23 08:00:07;;;;;;;;;;;;;;;-144.99;61.40;52174.97;5083642;28;19931;-74
2022/06/23 08:02:37;;;;;;;;;;;;;;;-144.99;61.25;52134.22;5087224;28;19924;-73
2022/06/23 08:05:08;;;;;;;;;;;;;;;-144.99;60.96;52146.44;5097837;28;20198;-73
2022/06/23 08:07:35;;;;;;;;;;;;;;;-144.99;60.23;52160.72;5098801;28;19928;-73
2022/06/23 08:10:04;;;;;;;;;;;;;;;-144.99;59.70;52109.75;5096049;28;19927;-74
2022/06/23 08:18:07;;;;;;;;;;;;;;;-144.99;58.20;52138.28;5090997;28;19934;-74
2022/06/23 08:20:37;;;;;;;;;;;;;;;-144.99;56.88;52130.13;5084352;28;19920;-74
2022/06/23 08:23:05;;;;;;;;;;;;;;;-144.99;55.56;52087.34;5086308;28;19973;-73
2022/06/23 08:25:32;;;;;;;;;;;;;;;-144.99;55.50;52130.13;5086248;28;19924;-75
2022/06/23 08:28:00;;;;;;;;;;;;;;;-144.99;55.43;52109.75;5082827;28;20355;-75
2022/06/23 08:30:28;;;;;;;;;;;;;;;-144.99;54.58;52115.88;5091485;28;19928;-74
2022/06/23 08:32:55;;;;;;;;;;;;;;;-144.99;54.67;52113.84;5089537;28;20010;-75
2022/06/23 08:35:24;;;;;;;;;;;;;;;-144.99;54.68;52113.84;5088640;28;19927;-77
2022/06/23 08:37:53;;;;;;;;;;;;;;;-144.99;53.76;52052.69;5085063;28;19924;-75
2022/06/23 08:40:24;;;;;;;;;;;;;;;-144.99;52.92;52117.91;5091151;28;19923;-75
2022/06/23 08:42:52;;;;;;;;;;;;;;;-144.99;52.65;52130.13;5089560;28;19924;-76
2022/06/23 08:45:28;;;;;;;;;;;;;;;-144.99;52.01;52101.59;5089088;28;19930;-75
2022/06/23 08:47:59;;;;;;;;;;;;;;;-144.99;51.73;52134.22;5090691;28;19985;-76
2022/06/23 08:50:31;;;;;;;;;;;;;;;-144.99;52.44;52134.22;5090933;28;19920;-77
2022/06/23 08:53:02;;;;;;;;;;;;;;;-144.99;51.77;52119.94;5092363;28;19920;-76
2022/06/23 08:55:32;;;;;;;;;;;;;;;-144.99;52.06;52136.25;5086589;28;20495;-75
2022/06/23 08:58:03;;;;;;;;;;;;;;;-144.99;51.43;52093.44;5090353;28;19920;-75
2022/06/23 09:00:35;;;;;;;;;;;;;;;-144.99;50.54;52081.22;5087526;28;19928;-76
2022/06/23 09:03:07;;;;;;;;;;;;;;;-144.99;48.83;52097.53;5089686;28;19924;-76
2022/06/23 09:05:38;;;;;;;;;;;;;;;-144.99;47.88;52097.53;5090381;28;19985;-75
2022/06/23 09:08:09;;;;;;;;;;;;;;;-144.99;47.50;52093.44;5088902;28;19924;-77
2022/06/23 09:10:41;;;;;;;;;;;;;;;-144.99;47.42;52091.41;5085691;28;19947;-74
2022/06/23 09:13:11;;;;;;;;;;;;;;;-144.99;48.33;52087.34;5089930;28;20452;-76
2022/06/23 09:15:53;;;;;;;;;;;;;;;-144.99;48.50;52089.38;5093226;28;19931;-76
2022/06/23 09:18:34;;;;;;;;;;;;;;;-144.99;48.64;52089.38;5090893;28;19967;-77
2022/06/23 09:21:16;;;;;;;;;;;;;;;-144.99;47.44;52093.44;5082506;28;19920;-74
2022/06/23 09:23:51;;;;;;;;;;;;;;;-144.99;47.58;52060.84;5086661;28;20335;-74
2022/06/23 09:26:23;;;;;;;;;;;;;;;-144.99;47.70;52071.03;5091649;28;19927;-75
2022/06/23 09:28:53;;;;;;;;;;;;;;;-144.99;46.65;52073.06;5088303;28;19951;-76
2022/06/23 09:31:24;;;;;;;;;;;;;;;-144.99;46.92;52052.69;5090579;28;20182;-76
2022/06/23 09:34:02;;;;;;;;;;;;;;;-144.99;46.52;52060.84;5090170;28;19931;-76
2022/06/23 09:36:46;;;;;;;;;;;;;;;-144.99;45.78;52069.00;5088118;28;19924;-75
2022/06/23 09:39:27;;;;;;;;;;;;;;;-144.99;45.13;52044.53;5073667;28;19924;-74
2022/06/23 09:42:08;;;;;;;;;;;;;;;-144.99;45.32;52069.00;5088579;28;19927;-74
2022/06/23 09:44:45;;;;;;;;;;;;;;;-144.99;44.47;52083.25;5090810;28;20370;-76
2022/06/23 09:47:31;;;;;;;;;;;;;;;-144.99;43.27;52079.19;5089430;28;19923;-75
2022/06/23 09:50:22;;;;;;;;;;;;;;;-144.99;42.95;52077.16;5090840;28;19928;-74
2022/06/23 09:53:06;;;;;;;;;;;;;;;-144.99;43.21;52036.38;5070589;28;19924;-75
2022/06/23 09:55:40;;;;;;;;;;;;;;;-144.99;42.73;52077.16;5091406;28;19924;-75
2022/06/23 09:58:25;;;;;;;;;;;;;;;-144.99;42.01;52081.22;5089379;28;20208;-75
2022/06/23 10:00:56;;;;;;;;;;;;;;;-144.99;42.62;52069.00;5085415;28;19931;-76
2022/06/23 10:03:32;;;;;;;;;;;;;;;-144.99;43.28;52081.22;5091357;28;19971;-76
2022/06/23 10:06:15;;;;;;;;;;;;;;;-144.99;42.35;52044.53;5089557;28;20375;-76
2022/06/23 10:08:48;;;;;;;;;;;;;;;-144.99;41.20;52056.78;5088746;28;21501;-76
2022/06/23 10:11:23;;;;;;;;;;;;;;;-144.99;40.36;52040.47;5089267;28;20245;-76
2022/06/23 10:13:57;;;;;;;;;;;;;;;-144.99;40.47;52036.38;5086052;28;19981;-76
2022/06/23 10:16:32;;;;;;;;;;;;;;;-144.99;39.64;52020.09;5090150;28;20383;-76
2022/06/23 10:19:09;;;;;;;;;;;;;;;-144.99;40.61;52028.22;5087481;28;20476;-76
2022/06/23 10:21:40;;;;;;;;;;;;;;;-144.99;40.70;52030.28;5091438;28;19923;-76
2022/06/23 10:24:19;;;;;;;;;;;;;;;-144.99;40.78;52028.22;5087429;28;20236;-76
2022/06/23 10:26:51;;;;;;;;;;;;;;;-144.99;39.26;52036.38;5084034;28;19928;-76
2022/06/23 10:29:29;;;;;;;;;;;;;;;-144.99;39.06;51999.69;5091523;28;19980;-75
2022/06/23 10:32:08;;;;;;;;;;;;;;;-144.99;38.50;51995.63;5089119;28;19920;-75
2022/06/23 10:34:48;;;;;;;;;;;;;;;-144.99;38.86;52032.31;5087180;28;19973;-75
2022/06/23 10:37:24;;;;;;;;;;;;;;;-144.99;39.17;52036.38;5087254;28;19951;-76
2022/06/23 10:40:15;;;;;;;;;;;;;;;-144.99;39.66;52030.28;5085643;28;19928;-76
2022/06/23 10:42:53;;;;;;;;;;;;;;;-144.99;39.32;52016.00;5087372;28;19955;-77
2022/06/23 10:45:30;;;;;;;;;;;;;;;-144.99;38.54;52044.53;5092543;28;19945;-76
2022/06/23 10:48:10;;;;;;;;;;;;;;;-144.99;37.95;52020.09;5106773;28;19907;-75
2022/06/23 10:50:41;;;;;;;;;;;;;;;-144.99;37.68;51997.66;5107707;28;19934;-76
2022/06/23 10:53:26;;;;;;;;;;;;;;;-144.99;37.81;51971.16;5111225;28;19923;-75
2022/06/23 10:56:02;;;;;;;;;;;;;;;-144.99;35.97;52005.81;5089420;28;19924;-75
2022/06/23 10:58:49;;;;;;;;;;;;;;;-144.99;35.46;52020.09;5089395;28;20006;-76
2022/06/23 11:01:26;;;;;;;;;;;;;;;-144.99;36.42;51965.06;5091480;28;20637;-76
2022/06/23 11:04:03;;;;;;;;;;;;;;;-144.99;36.22;51993.59;5090732;28;19920;-76
2022/06/23 11:06:46;;;;;;;;;;;;;;;-144.99;36.20;52020.09;5086422;28;19920;-77
2022/06/23 11:09:21;;;;;;;;;;;;;;;-144.99;36.26;52024.16;5087944;28;19924;-77
2022/06/23 11:11:58;;;;;;;;;;;;;;;-144.99;36.44;51987.47;5090970;28;19988;-75
2022/06/23 11:14:32;;;;;;;;;;;;;;;-144.99;35.59;51985.44;5093379;28;19931;-76
2022/06/23 11:17:02;;;;;;;;;;;;;;;-144.99;36.21;52016.00;5099839;28;20008;-75
2022/06/23 11:19:39;;;;;;;;;;;;;;;-144.99;35.87;52007.84;5084343;28;20177;-76
2022/06/23 11:22:19;;;;;;;;;;;;;;;-144.99;35.54;52040.47;5090758;28;19921;-75
2022/06/23 11:24:53;;;;;;;;;;;;;;;-144.99;34.65;52016.00;5088489;28;19920;-75
2022/06/23 11:27:33;;;;;;;;;;;;;;;-144.99;34.72;51979.31;5088427;28;19932;-75
2022/06/23 11:30:06;;;;;;;;;;;;;;;-144.99;35.16;52007.84;5087691;28;19958;-76
2022/06/23 11:32:48;;;;;;;;;;;;;;;-144.99;34.97;52020.09;5088759;28;19920;-75
2022/06/23 11:35:24;;;;;;;;;;;;;;;-144.99;33.86;51967.09;5086824;28;19923;-76
2022/06/23 11:38:03;;;;;;;;;;;;;;;-144.99;34.10;51979.31;5087456;28;19924;-76
2022/06/23 11:40:37;;;;;;;;;;;;;;;-144.99;33.36;51958.94;5086449;28;19923;-77
2022/06/23 11:43:13;;;;;;;;;;;;;;;-144.99;33.66;51971.16;5089599;28;20353;-76
2022/06/23 11:45:57;;;;;;;;;;;;;;;-144.99;32.75;51987.47;5091035;28;20322;-76
2022/06/23 11:48:30;;;;;;;;;;;;;;;-144.99;32.21;51995.63;5088583;28;19945;-75
2022/06/23 11:51:04;;;;;;;;;;;;;;;-144.99;32.11;52007.84;5091696;28;19924;-75
2022/06/23 11:53:41;;;;;;;;;;;;;;;-144.99;32.40;51991.56;5088223;28;19931;-76
2022/06/23 11:56:09;;;;;;;;;;;;;;;-144.99;32.41;51981.38;5092231;28;20522;-75
2022/06/23 11:58:56;;;;;;;;;;;;;;;-144.99;32.83;51999.69;5088708;28;19987;-76
2022/06/23 12:01:24;;;;;;;;;;;;;;;-144.99;31.76;51987.47;5092194;28;19924;-75
2022/06/23 12:03:56;;;;;;;;;;;;;;;-144.99;32.00;51987.47;5092589;28;19941;-75
2022/06/23 12:06:29;;;;;;;;;;;;;;;-144.99;31.88;51983.41;5094768;28;19923;-75
2022/06/23 12:09:01;;;;;;;;;;;;;;;-144.99;31.36;51958.94;5095090;28;19931;-76
2022/06/23 12:11:30;;;;;;;;;;;;;;;-144.99;31.76;51963.03;5098567;28;19924;-75
2022/06/23 12:13:58;;;;;;;;;;;;;;;-144.99;31.61;51967.09;5096747;28;19942;-75
2022/06/23 12:16:25;;;;;;;;;;;;;;;-144.99;31.48;51973.22;5094069;28;19927;-75
2022/06/23 12:18:54;;;;;;;;;;;;;;;-144.99;31.40;51987.47;5089452;28;19934;-75
2022/06/23 12:21:26;;;;;;;;;;;;;;;-144.99;31.69;51995.63;5093433;28;20711;-76
2022/06/23 12:23:55;;;;;;;;;;;;;;;-144.99;32.22;51975.25;5091992;28;19936;-75
2022/06/23 12:26:25;;;;;;;;;;;;;;;-144.99;32.02;51975.25;5089617;28;19927;-75
2022/06/23 12:28:57;;;;;;;;;;;;;;;-144.99;32.37;51946.72;5090472;28;19934;-75
2022/06/23 12:31:29;;;;;;;;;;;;;;;-144.99;32.38;51983.41;5092054;28;20240;-75
2022/06/23 12:34:02;;;;;;;;;;;;;;;-144.99;32.09;51983.41;5092957;28;22207;-76
2022/06/23 12:36:33;;;;;;;;;;;;;;;-144.99;31.40;51975.25;5088124;28;19932;-76
2022/06/23 12:39:03;;;;;;;;;;;;;;;-144.99;31.92;51963.03;5091319;28;19930;-76
2022/06/23 12:41:34;;;;;;;;;;;;;;;-144.99;31.61;51975.25;5088263;28;19982;-74
2022/06/23 12:44:09;;;;;;;;;;;;;;;-144.99;31.63;51942.63;5091185;28;19930;-74
2022/06/23 12:46:41;;;;;;;;;;;;;;;-144.99;31.92;51958.94;5090718;28;19989;-75
2022/06/23 12:49:23;;;;;;;;;;;;;;;-144.99;32.20;51975.25;5091564;28;20252;-75
2022/06/23 12:52:00;;;;;;;;;;;;;;;-144.99;32.02;51958.94;5086638;28;20025;-75
2022/06/23 12:54:38;;;;;;;;;;;;;;;-144.99;32.16;51963.03;5092196;28;19928;-75
2022/06/23 12:57:11;;;;;;;;;;;;;;;-144.99;33.16;51979.31;5087900;28;19928;-76
2022/06/23 12:59:42;;;;;;;;;;;;;;;-144.99;33.49;51963.03;5089528;28;20035;-76